createdAt,value
2022-11-22T00:00:27.780Z,1.53
2022-11-22T00:02:54.854Z,1.50
2022-11-22T00:05:21.769Z,2.20
2022-11-22T00:07:48.595Z,1.80
2022-11-22T00:10:15.971Z,1.60
2022-11-22T00:12:43.291Z,1.40
2022-11-22T00:15:11.122Z,1.20
2022-11-22T00:17:38.043Z,1.40
2022-11-22T00:20:06.956Z,1.60
2022-11-22T00:22:33.776Z,1.87
2022-11-22T00:25:00.778Z,1.20
2022-11-22T00:27:27.924Z,1.77
2022-11-22T00:29:54.687Z,1.47
2022-11-22T00:32:21.522Z,2.17
2022-11-22T00:34:48.282Z,1.77
2022-11-22T00:37:14.967Z,1.67
2022-11-22T00:39:41.698Z,1.87
2022-11-22T00:42:08.417Z,1.50
2022-11-22T00:44:35.379Z,1.90
2022-11-22T00:47:02.040Z,1.50
2022-11-22T00:49:29.046Z,1.37
2022-11-22T00:51:55.974Z,2.73
2022-11-22T00:54:22.843Z,1.97
2022-11-22T00:56:49.669Z,1.87
2022-11-22T00:59:16.329Z,2.40
2022-11-22T01:01:43.140Z,1.97
2022-11-22T01:04:09.981Z,1.40
2022-11-22T01:06:36.717Z,2.33
2022-11-22T01:09:03.696Z,2.13
2022-11-22T01:11:30.340Z,2.10
2022-11-22T01:13:57.209Z,1.67
2022-11-22T01:16:24.027Z,1.70
2022-11-22T01:18:50.781Z,1.80
2022-11-22T01:21:17.551Z,1.60
2022-11-22T01:23:44.345Z,1.80
2022-11-22T01:26:12.903Z,1.97
2022-11-22T01:28:39.741Z,1.80
2022-11-22T01:31:06.495Z,1.43
2022-11-22T01:33:33.229Z,1.43
2022-11-22T01:35:59.936Z,2.00
2022-11-22T01:38:26.801Z,1.77
2022-11-22T01:40:54.007Z,1.30
2022-11-22T01:43:23.791Z,1.97
2022-11-22T01:45:55.815Z,1.70
2022-11-22T01:48:54.046Z,1.93
2022-11-22T01:51:28.374Z,1.60
2022-11-22T01:53:58.919Z,1.40
2022-11-22T01:56:26.745Z,2.50
2022-11-22T01:58:58.443Z,1.57
2022-11-22T02:01:25.278Z,1.80
2022-11-22T02:03:53.601Z,1.30
2022-11-22T02:06:21.224Z,1.03
2022-11-22T02:09:05.594Z,1.17
2022-11-22T02:11:34.501Z,1.30
2022-11-22T02:14:02.152Z,1.53
2022-11-22T02:16:29.296Z,1.50
2022-11-22T02:18:56.073Z,1.30
2022-11-22T02:21:22.875Z,1.23
2022-11-22T02:23:52.617Z,1.77
2022-11-22T02:26:19.468Z,1.73
2022-11-22T02:28:46.833Z,1.50
2022-11-22T02:31:37.059Z,1.40
2022-11-22T02:34:03.843Z,1.10
2022-11-22T02:36:35.209Z,1.00
2022-11-22T02:39:02.036Z,1.70
2022-11-22T02:41:28.909Z,0.90
2022-11-22T02:43:55.735Z,1.40
2022-11-22T02:46:23.621Z,1.50
2022-11-22T02:48:50.605Z,1.60
2022-11-22T02:51:20.089Z,1.67
2022-11-22T02:53:48.766Z,1.10
2022-11-22T02:56:16.952Z,1.40
2022-11-22T02:58:44.382Z,1.60
2022-11-22T03:01:12.895Z,1.20
2022-11-22T03:03:39.708Z,1.67
2022-11-22T03:06:06.644Z,1.77
2022-11-22T03:08:33.447Z,1.00
2022-11-22T03:11:00.728Z,0.93
2022-11-22T03:13:27.642Z,1.30
2022-11-22T03:15:54.550Z,1.10
2022-11-22T03:18:21.695Z,1.27
2022-11-22T03:20:48.452Z,1.50
2022-11-22T03:23:15.474Z,1.30
2022-11-22T03:25:42.424Z,1.73
2022-11-22T03:28:09.380Z,1.00
2022-11-22T03:30:40.382Z,1.70
2022-11-22T03:33:07.362Z,1.70
2022-11-22T03:35:34.161Z,1.30
2022-11-22T03:38:00.864Z,1.40
2022-11-22T03:40:27.599Z,1.80
2022-11-22T03:42:54.367Z,1.33
2022-11-22T03:45:21.072Z,1.60
2022-11-22T03:47:47.832Z,1.47
2022-11-22T03:50:15.072Z,1.27
2022-11-22T03:52:41.752Z,1.83
2022-11-22T03:55:08.836Z,1.37
2022-11-22T03:57:35.592Z,2.23
2022-11-22T04:00:02.269Z,2.33
2022-11-22T04:02:29.045Z,1.47
2022-11-22T04:04:55.784Z,1.50
2022-11-22T04:07:22.853Z,1.80
2022-11-22T04:09:49.648Z,1.70
2022-11-22T04:12:16.410Z,1.83
2022-11-22T04:15:01.771Z,1.50
2022-11-22T04:17:40.472Z,1.73
2022-11-22T04:20:28.084Z,1.90
2022-11-22T04:22:59.693Z,2.13
2022-11-22T04:25:28.116Z,1.37
2022-11-22T04:27:55.554Z,1.77
2022-11-22T04:30:42.386Z,1.63
2022-11-22T04:33:10.636Z,1.53
2022-11-22T04:35:38.487Z,2.07
2022-11-22T04:38:05.656Z,1.50
2022-11-22T04:40:33.073Z,3.37
2022-11-22T04:43:18.281Z,2.43
2022-11-22T04:45:45.200Z,2.20
2022-11-22T04:48:12.583Z,2.27
2022-11-22T04:50:58.842Z,1.67
2022-11-22T04:53:26.425Z,1.80
2022-11-22T04:55:53.436Z,1.87
2022-11-22T04:58:20.745Z,2.17
2022-11-22T05:00:47.895Z,2.03
2022-11-22T05:03:14.856Z,1.87
2022-11-22T05:05:43.537Z,1.80
2022-11-22T05:08:10.690Z,2.20
2022-11-22T05:10:56.417Z,2.33
2022-11-22T05:13:43.653Z,2.00
2022-11-22T05:16:12.801Z,1.80
2022-11-22T05:18:39.857Z,2.07
2022-11-22T05:21:09.215Z,1.80
2022-11-22T05:23:54.418Z,2.50
2022-11-22T05:26:26.835Z,2.17
2022-11-22T05:28:54.286Z,2.87
2022-11-22T05:31:27.259Z,2.40
2022-11-22T05:33:56.466Z,2.90
2022-11-22T05:36:24.268Z,1.87
2022-11-22T05:38:51.957Z,2.63
2022-11-22T05:41:19.119Z,3.20
2022-11-22T05:43:46.078Z,2.30
2022-11-22T05:46:19.470Z,2.70
2022-11-22T05:48:49.637Z,2.37
2022-11-22T05:51:19.731Z,2.23
2022-11-22T05:53:46.934Z,2.50
2022-11-22T05:56:16.275Z,2.70
2022-11-22T05:58:43.756Z,2.73
2022-11-22T06:01:19.456Z,2.30
2022-11-22T06:03:46.662Z,2.30
2022-11-22T06:06:14.241Z,2.50
2022-11-22T06:08:45.113Z,1.87
2022-11-22T06:11:16.729Z,2.53
2022-11-22T06:13:45.136Z,2.67
2022-11-22T06:16:11.970Z,3.03
2022-11-22T06:18:39.209Z,2.97
2022-11-22T06:21:10.463Z,3.13
2022-11-22T06:23:37.231Z,2.53
2022-11-22T06:26:06.970Z,10.83
2022-11-22T06:28:35.482Z,12.47
2022-11-22T06:31:12.804Z,5.63
2022-11-22T06:33:40.160Z,6.77
2022-11-22T06:36:09.277Z,2.27
2022-11-22T06:38:36.440Z,2.77
2022-11-22T06:41:05.753Z,1.90
2022-11-22T06:43:33.903Z,2.53
2022-11-22T06:46:02.031Z,3.00
2022-11-22T06:48:37.729Z,3.70
2022-11-22T06:51:07.972Z,5.33
2022-11-22T06:53:50.995Z,3.30
2022-11-22T06:56:20.475Z,2.70
2022-11-22T06:58:48.985Z,3.07
2022-11-22T07:01:18.722Z,3.00
2022-11-22T07:03:46.461Z,2.47
2022-11-22T07:06:14.611Z,2.53
2022-11-22T07:08:42.168Z,1.93
2022-11-22T07:11:14.497Z,3.20
2022-11-22T07:13:41.646Z,2.60
2022-11-22T07:16:10.669Z,2.17
2022-11-22T07:18:37.576Z,3.20
2022-11-22T07:21:12.895Z,3.70
2022-11-22T07:23:42.492Z,2.70
2022-11-22T07:26:09.808Z,2.50
2022-11-22T07:28:37.261Z,2.50
2022-11-22T07:31:06.472Z,2.40
2022-11-22T07:33:33.744Z,3.20
2022-11-22T07:36:05.451Z,2.63
2022-11-22T07:38:32.915Z,2.10
2022-11-22T07:40:59.917Z,3.27
2022-11-22T07:43:26.916Z,2.40
2022-11-22T07:45:53.665Z,3.53
2022-11-22T07:48:20.955Z,2.63
2022-11-22T07:50:47.766Z,2.20
2022-11-22T07:53:14.522Z,2.13
2022-11-22T07:55:41.199Z,1.50
2022-11-22T07:58:08.075Z,2.77
2022-11-22T08:00:34.908Z,1.70
2022-11-22T08:03:01.712Z,1.97
2022-11-22T08:05:28.552Z,2.60
2022-11-22T08:07:55.682Z,3.00
2022-11-22T08:10:22.863Z,2.53
2022-11-22T08:12:49.611Z,2.00
2022-11-22T08:15:17.468Z,2.30
2022-11-22T08:17:44.320Z,2.13
2022-11-22T08:20:11.555Z,3.10
2022-11-22T08:22:39.624Z,2.47
2022-11-22T08:25:12.410Z,2.50
2022-11-22T08:27:41.291Z,2.67
2022-11-22T08:30:09.648Z,2.10
2022-11-22T08:32:36.796Z,2.50
2022-11-22T08:35:04.327Z,2.27
2022-11-22T08:37:31.100Z,1.50
2022-11-22T08:39:57.933Z,2.03
2022-11-22T08:42:24.609Z,2.13
2022-11-22T08:44:51.419Z,2.37
2022-11-22T08:47:18.208Z,1.50
2022-11-22T08:49:44.906Z,2.27
2022-11-22T08:52:11.708Z,1.80
2022-11-22T08:54:38.509Z,1.77
2022-11-22T08:57:05.486Z,2.07
2022-11-22T08:59:33.195Z,2.07
2022-11-22T09:02:00.750Z,2.10
2022-11-22T09:04:27.549Z,1.80
2022-11-22T09:09:40.948Z,1.87
2022-11-22T09:12:07.905Z,1.83
2022-11-22T09:14:34.688Z,1.40
2022-11-22T09:17:01.525Z,1.40
2022-11-22T09:19:28.619Z,2.23
2022-11-22T09:21:55.600Z,1.57
2022-11-22T09:24:22.388Z,1.53
2022-11-22T09:26:49.117Z,2.57
2022-11-22T09:29:16.023Z,1.50
2022-11-22T09:31:42.929Z,1.63
2022-11-22T09:34:09.592Z,1.90
2022-11-22T09:36:36.513Z,1.80
2022-11-22T09:39:03.423Z,1.67
2022-11-22T09:41:47.601Z,1.30
2022-11-22T09:44:45.202Z,1.20
2022-11-22T09:47:42.445Z,1.50
2022-11-22T09:50:41.785Z,1.90
2022-11-22T09:53:18.299Z,1.30
2022-11-22T09:55:48.968Z,5.17
2022-11-22T09:58:51.710Z,2.40
2022-11-22T10:01:22.081Z,2.10
2022-11-22T10:04:01.528Z,2.00
2022-11-22T10:06:41.272Z,1.20
2022-11-22T10:09:36.763Z,1.50
2022-11-22T10:12:27.648Z,1.93
2022-11-22T10:15:19.312Z,1.20
2022-11-22T10:18:25.712Z,2.10
2022-11-22T10:20:53.354Z,1.63
2022-11-22T10:23:22.829Z,1.70
2022-11-22T10:26:27.433Z,1.83
2022-11-22T10:29:12.605Z,1.10
2022-11-22T10:32:03.824Z,1.13
2022-11-22T10:34:45.093Z,1.20
2022-11-22T10:37:20.225Z,1.37
2022-11-22T10:40:00.810Z,1.30
2022-11-22T10:42:30.940Z,0.80
2022-11-22T10:44:57.584Z,0.90
2022-11-22T10:47:48.018Z,1.73
2022-11-22T10:50:23.824Z,1.20
2022-11-22T10:52:59.810Z,0.73
2022-11-22T10:55:48.214Z,1.00
2022-11-22T10:58:45.319Z,1.33
2022-11-22T11:01:41.784Z,1.07
2022-11-22T11:04:12.425Z,1.60
2022-11-22T11:07:11.223Z,1.10
2022-11-22T11:12:56.983Z,0.87
2022-11-22T11:15:28.292Z,0.90
2022-11-22T11:18:00.914Z,0.90
2022-11-22T11:20:31.687Z,1.33
2022-11-22T11:23:14.071Z,0.90
2022-11-22T11:25:44.316Z,1.10
2022-11-22T11:28:26.901Z,0.83
2022-11-22T11:31:02.080Z,0.73
2022-11-22T11:33:34.950Z,0.90
2022-11-22T11:36:10.644Z,0.77
2022-11-22T11:38:40.395Z,0.70
2022-11-22T11:41:29.566Z,0.97
2022-11-22T11:44:01.794Z,1.10
2022-11-22T11:46:49.897Z,0.87
2022-11-22T11:49:18.826Z,0.60
2022-11-22T11:51:48.544Z,0.93
2022-11-22T11:54:21.722Z,1.53
2022-11-22T11:56:52.664Z,0.60
2022-11-22T11:59:21.735Z,1.60
2022-11-22T12:01:59.954Z,1.47
2022-11-22T12:04:30.908Z,1.20
2022-11-22T12:07:16.850Z,0.83
2022-11-22T12:09:46.167Z,0.97
2022-11-22T12:12:26.791Z,1.00
2022-11-22T12:15:11.841Z,0.90
2022-11-22T12:17:48.718Z,0.90
2022-11-22T12:20:22.388Z,0.60
2022-11-22T12:23:17.361Z,0.80
2022-11-22T12:25:45.752Z,0.97
2022-11-22T12:28:19.145Z,1.00
2022-11-22T12:30:53.058Z,1.03
2022-11-22T12:33:27.446Z,1.10
2022-11-22T12:35:55.540Z,1.00
2022-11-22T12:38:28.794Z,0.80
2022-11-22T12:40:59.284Z,1.10
2022-11-22T12:43:49.900Z,1.60
2022-11-22T12:46:19.524Z,1.90
2022-11-22T12:49:06.289Z,4.87
2022-11-22T12:51:54.041Z,1.63
2022-11-22T12:54:30.120Z,1.43
2022-11-22T12:57:01.213Z,1.17
2022-11-22T12:59:51.395Z,1.80
2022-11-22T13:02:59.788Z,1.50
2022-11-22T13:06:03.655Z,1.93
2022-11-22T13:08:57.675Z,1.50
2022-11-22T13:11:42.970Z,2.30
2022-11-22T13:14:20.831Z,1.97
2022-11-22T13:16:50.698Z,1.00
2022-11-22T13:19:20.042Z,2.47
2022-11-22T13:22:11.701Z,1.40
2022-11-22T13:25:07.534Z,1.20
2022-11-22T13:27:44.345Z,0.63
2022-11-22T13:30:22.671Z,1.10
2022-11-22T13:32:55.752Z,0.70
2022-11-22T13:35:35.728Z,0.67
2022-11-22T13:38:14.125Z,0.50
2022-11-22T13:40:47.079Z,0.60
2022-11-22T13:43:17.862Z,0.60
2022-11-22T13:46:02.152Z,0.63
2022-11-22T13:49:21.039Z,0.67
2022-11-22T13:51:52.596Z,0.80
2022-11-22T13:54:39.941Z,0.70
2022-11-22T13:57:25.577Z,0.70
2022-11-22T14:00:16.652Z,1.30
2022-11-22T14:02:47.448Z,0.70
2022-11-22T14:05:26.790Z,0.60
2022-11-22T14:07:56.140Z,0.70
2022-11-22T14:10:46.836Z,0.60
2022-11-22T14:13:25.516Z,0.63
2022-11-22T14:16:10.643Z,0.73
2022-11-22T14:18:54.314Z,0.50
2022-11-22T14:21:38.904Z,0.80
2022-11-22T14:24:40.646Z,1.40
2022-11-22T14:27:10.197Z,0.80
2022-11-22T14:29:57.469Z,0.70
2022-11-22T14:32:26.141Z,0.60
2022-11-22T14:35:05.132Z,0.80
2022-11-22T14:40:29.389Z,0.70
2022-11-22T14:43:22.082Z,0.63
2022-11-22T14:46:37.355Z,0.73
2022-11-22T14:49:10.975Z,1.00
2022-11-22T14:51:39.208Z,0.70
2022-11-22T14:54:35.361Z,1.23
2022-11-22T14:57:07.399Z,1.67
2022-11-22T14:59:52.376Z,0.60
2022-11-22T15:03:02.172Z,0.50
2022-11-22T15:09:17.456Z,0.70
2022-11-22T15:09:46.640Z,1.27
2022-11-22T15:12:25.836Z,0.40
2022-11-22T15:57:30.962Z,0.70
2022-11-22T15:59:58.506Z,0.57
2022-11-22T16:02:30.202Z,0.50
2022-11-22T16:06:07.592Z,1.80
2022-11-22T16:07:52.632Z,0.50
2022-11-22T16:10:22.746Z,0.50
2022-11-22T16:12:50.880Z,0.50
2022-11-22T16:15:26.894Z,0.50
2022-11-22T16:18:15.606Z,0.50
2022-11-22T16:20:59.222Z,0.50
2022-11-22T16:23:28.200Z,0.47
2022-11-22T16:26:12.480Z,0.73
2022-11-22T16:28:39.672Z,0.60
2022-11-22T16:31:28.875Z,0.50
2022-11-22T16:33:57.105Z,0.70
2022-11-22T16:36:28.427Z,0.50
2022-11-22T16:38:55.342Z,0.50
2022-11-22T16:41:23.242Z,0.50
2022-11-22T16:44:00.116Z,0.40
2022-11-22T16:46:27.778Z,0.70
2022-11-22T16:48:56.347Z,0.60
2022-11-22T16:51:29.008Z,0.50
2022-11-22T16:54:05.842Z,0.60
2022-11-22T16:56:33.026Z,0.47
2022-11-22T16:58:59.922Z,0.60
2022-11-22T17:01:32.970Z,0.60
2022-11-22T17:04:01.709Z,0.70
2022-11-22T17:06:30.824Z,0.50
2022-11-22T17:08:59.165Z,0.50
2022-11-22T17:11:29.735Z,0.60
2022-11-22T17:13:57.113Z,0.73
2022-11-22T17:16:24.161Z,0.50
2022-11-22T17:18:51.237Z,0.50
2022-11-22T17:21:37.471Z,0.50
2022-11-22T17:24:06.855Z,0.50
2022-11-22T17:26:34.860Z,0.47
2022-11-22T17:29:01.989Z,0.63
2022-11-22T17:31:29.165Z,0.60
2022-11-22T17:33:58.645Z,0.40
2022-11-22T17:36:30.973Z,0.50
2022-11-22T17:38:59.865Z,0.50
2022-11-22T17:41:27.328Z,0.60
2022-11-22T17:43:54.416Z,0.50
2022-11-22T17:46:21.282Z,0.70
2022-11-22T17:48:59.654Z,0.60
2022-11-22T17:51:30.165Z,1.27
2022-11-22T17:54:00.884Z,0.50
2022-11-22T17:56:28.937Z,0.57
2022-11-22T17:58:55.730Z,0.77
2022-11-22T18:01:23.486Z,0.97
2022-11-22T18:03:50.382Z,1.00
2022-11-22T18:06:18.817Z,0.63
2022-11-22T18:08:47.444Z,0.80
2022-11-22T18:11:15.340Z,0.90
2022-11-22T18:13:43.271Z,0.70
2022-11-22T18:16:15.329Z,0.90
2022-11-22T18:18:58.437Z,0.67
2022-11-22T18:21:30.450Z,0.80
2022-11-22T18:24:00.966Z,2.43
2022-11-22T18:26:43.673Z,4.27
2022-11-22T18:29:41.717Z,1.40
2022-11-22T18:32:00.035Z,1.17
2022-11-22T18:34:27.804Z,1.20
2022-11-22T18:37:00.916Z,0.90
2022-11-22T18:39:30.772Z,1.17
2022-11-22T18:41:57.891Z,1.20
2022-11-22T18:44:24.665Z,1.27
2022-11-22T18:46:51.464Z,1.10
2022-11-22T18:49:18.366Z,0.87
2022-11-22T18:51:45.092Z,1.30
2022-11-22T18:54:11.859Z,0.90
2022-11-22T18:56:40.343Z,1.10
2022-11-22T18:59:10.428Z,0.87
2022-11-22T19:01:37.368Z,0.90
2022-11-22T19:04:05.126Z,1.30
2022-11-22T19:06:32.416Z,1.27
2022-11-22T19:08:59.351Z,0.63
2022-11-22T19:11:28.441Z,1.10
2022-11-22T19:13:55.415Z,1.20
2022-11-22T19:16:23.245Z,3.00
2022-11-22T19:18:50.506Z,1.30
2022-11-22T19:21:22.457Z,0.80
2022-11-22T19:23:49.981Z,0.90
2022-11-22T19:26:20.540Z,0.60
2022-11-22T19:28:48.548Z,1.30
2022-11-22T19:31:22.870Z,0.87
2022-11-22T19:33:50.021Z,0.80
2022-11-22T19:36:21.343Z,0.77
2022-11-22T19:38:48.881Z,0.90
2022-11-22T19:41:20.888Z,0.93
2022-11-22T19:43:48.992Z,1.20
2022-11-22T19:46:16.237Z,1.07
2022-11-22T19:48:46.891Z,1.07
2022-11-22T19:51:15.206Z,0.90
2022-11-22T19:53:42.519Z,0.87
2022-11-22T19:56:13.576Z,0.90
2022-11-22T19:58:40.702Z,1.20
2022-11-22T20:01:09.776Z,0.90
2022-11-22T20:03:38.753Z,0.80
2022-11-22T20:06:07.269Z,1.13
2022-11-22T20:08:34.164Z,1.30
2022-11-22T20:11:03.096Z,0.87
2022-11-22T20:13:30.815Z,0.80
2022-11-22T20:15:58.000Z,1.00
2022-11-22T20:18:24.874Z,0.83
2022-11-22T20:20:55.361Z,0.70
2022-11-22T20:23:22.150Z,1.30
2022-11-22T20:25:48.821Z,1.10
2022-11-22T20:28:15.905Z,0.83
2022-11-22T20:30:42.585Z,0.80
2022-11-22T20:33:09.355Z,1.00
2022-11-22T20:35:36.256Z,1.00
2022-11-22T20:38:03.127Z,1.10
2022-11-22T20:40:29.799Z,1.53
2022-11-22T20:42:56.561Z,1.20
2022-11-22T20:45:23.371Z,1.90
2022-11-22T20:47:50.140Z,1.50
2022-11-22T20:50:17.496Z,0.90
2022-11-22T20:52:44.246Z,1.07
2022-11-22T20:55:11.128Z,1.70
2022-11-22T20:57:38.440Z,1.80
2022-11-22T21:00:05.660Z,2.23
2022-11-22T21:02:34.682Z,1.97
2022-11-22T21:05:01.454Z,1.73
2022-11-22T21:07:28.309Z,1.03
2022-11-22T21:09:55.056Z,1.40
2022-11-22T21:12:21.753Z,1.70
2022-11-22T21:14:52.546Z,1.53
2022-11-22T21:17:39.699Z,2.10
2022-11-22T21:20:07.589Z,1.83
2022-11-22T21:22:34.362Z,1.80
2022-11-22T21:25:01.282Z,2.03
2022-11-22T21:27:28.102Z,1.80
2022-11-22T21:29:54.835Z,1.83
2022-11-22T21:32:21.568Z,1.80
2022-11-22T21:34:48.298Z,2.47
2022-11-22T21:37:15.289Z,1.70
2022-11-22T21:39:41.977Z,1.33
2022-11-22T21:42:08.741Z,1.47
2022-11-22T21:44:35.484Z,2.00
2022-11-22T21:47:03.242Z,2.37
2022-11-22T21:49:30.067Z,2.10
2022-11-22T21:51:56.945Z,2.50
2022-11-22T21:54:23.603Z,2.07
2022-11-22T21:56:50.395Z,1.97
2022-11-22T21:59:17.605Z,1.70
2022-11-22T22:01:44.418Z,1.57
2022-11-22T22:04:11.251Z,1.83
2022-11-22T22:06:41.234Z,1.70
2022-11-22T22:09:10.293Z,1.63
2022-11-22T22:11:36.973Z,3.40
2022-11-22T22:14:03.782Z,1.30
2022-11-22T22:16:30.466Z,1.40
2022-11-22T22:18:57.223Z,1.70
2022-11-22T22:21:24.021Z,1.07
2022-11-22T22:23:50.795Z,1.40
2022-11-22T22:26:18.073Z,1.90
2022-11-22T22:28:45.912Z,1.50
2022-11-22T22:31:17.314Z,2.33
2022-11-22T22:33:45.669Z,1.60
2022-11-22T22:36:13.240Z,1.60
2022-11-22T22:38:40.730Z,1.53
2022-11-22T22:41:09.941Z,1.60
2022-11-22T22:43:39.307Z,1.67
2022-11-22T22:46:10.365Z,1.47
2022-11-22T22:48:37.048Z,1.33
2022-11-22T22:51:09.070Z,1.00
2022-11-22T22:53:36.082Z,1.87
2022-11-22T22:56:03.260Z,1.20
2022-11-22T22:58:29.959Z,1.30
2022-11-22T23:01:13.582Z,1.20
2022-11-22T23:03:40.712Z,1.20
2022-11-22T23:06:09.356Z,1.47
2022-11-22T23:08:36.604Z,1.43
2022-11-22T23:11:08.847Z,1.43
2022-11-22T23:13:37.220Z,0.90
2022-11-22T23:16:05.489Z,1.50
2022-11-22T23:18:36.032Z,1.60
2022-11-22T23:21:05.192Z,0.97
2022-11-22T23:23:32.683Z,1.43
2022-11-22T23:26:07.995Z,1.10
2022-11-22T23:28:35.290Z,1.40
2022-11-22T23:31:11.554Z,1.00
2022-11-22T23:33:38.375Z,1.97
2022-11-22T23:36:10.384Z,0.70
2022-11-22T23:38:37.975Z,1.17
2022-11-22T23:41:05.028Z,0.97
2022-11-22T23:43:31.987Z,1.63
2022-11-22T23:45:59.015Z,1.57
2022-11-22T23:48:26.864Z,2.17
2022-11-22T23:50:53.696Z,1.03
2022-11-22T23:53:20.560Z,1.40
2022-11-22T23:55:47.284Z,1.20
2022-11-22T23:58:13.954Z,0.93
